sensor_id;sensor_type;location;lat;lon;timestamp;P1;durP1;ratioP1;P2;durP2;ratioP2
10383;SDS011;5238;43.508;4.980;2023-09-19T00:00:55;7.07;;;4.07;;
10383;SDS011;5238;43.508;4.980;2023-09-19T00:03:23;6.93;;;3.50;;
10383;SDS011;5238;43.508;4.980;2023-09-19T00:05:52;6.55;;;3.83;;
10383;SDS011;5238;43.508;4.980;2023-09-19T00:08:20;6.88;;;4.43;;
10383;SDS011;5238;43.508;4.980;2023-09-19T00:10:50;6.22;;;3.47;;
10383;SDS011;5238;43.508;4.980;2023-09-19T00:13:18;7.28;;;4.03;;
10383;SDS011;5238;43.508;4.980;2023-09-19T00:15:46;5.03;;;3.47;;
10383;SDS011;5238;43.508;4.980;2023-09-19T00:18:15;5.68;;;3.65;;
10383;SDS011;5238;43.508;4.980;2023-09-19T00:20:44;6.88;;;3.90;;
10383;SDS011;5238;43.508;4.980;2023-09-19T00:23:14;6.13;;;4.00;;
10383;SDS011;5238;43.508;4.980;2023-09-19T00:25:41;8.75;;;4.22;;
10383;SDS011;5238;43.508;4.980;2023-09-19T00:28:08;6.43;;;3.38;;
10383;SDS011;5238;43.508;4.980;2023-09-19T00:30:36;7.35;;;4.13;;
10383;SDS011;5238;43.508;4.980;2023-09-19T00:33:04;5.70;;;3.63;;
10383;SDS011;5238;43.508;4.980;2023-09-19T00:35:33;8.68;;;3.80;;
10383;SDS011;5238;43.508;4.980;2023-09-19T00:38:00;4.70;;;3.20;;
10383;SDS011;5238;43.508;4.980;2023-09-19T00:40:28;6.88;;;3.28;;
10383;SDS011;5238;43.508;4.980;2023-09-19T00:42:58;5.13;;;3.10;;
10383;SDS011;5238;43.508;4.980;2023-09-19T00:45:26;9.85;;;3.50;;
10383;SDS011;5238;43.508;4.980;2023-09-19T00:47:53;6.28;;;3.13;;
10383;SDS011;5238;43.508;4.980;2023-09-19T00:50:22;7.07;;;3.30;;
10383;SDS011;5238;43.508;4.980;2023-09-19T00:52:53;5.55;;;3.00;;
10383;SDS011;5238;43.508;4.980;2023-09-19T00:55:22;4.97;;;3.30;;
10383;SDS011;5238;43.508;4.980;2023-09-19T00:57:52;6.15;;;3.38;;
10383;SDS011;5238;43.508;4.980;2023-09-19T01:00:21;4.97;;;3.15;;
10383;SDS011;5238;43.508;4.980;2023-09-19T01:02:49;6.97;;;3.17;;
10383;SDS011;5238;43.508;4.980;2023-09-19T01:05:16;7.97;;;3.22;;
10383;SDS011;5238;43.508;4.980;2023-09-19T01:07:43;7.20;;;3.13;;
10383;SDS011;5238;43.508;4.980;2023-09-19T01:10:11;7.30;;;3.20;;
10383;SDS011;5238;43.508;4.980;2023-09-19T01:12:44;5.68;;;2.92;;
10383;SDS011;5238;43.508;4.980;2023-09-19T01:15:20;6.85;;;3.28;;
10383;SDS011;5238;43.508;4.980;2023-09-19T01:17:57;7.10;;;3.20;;
10383;SDS011;5238;43.508;4.980;2023-09-19T01:20:31;5.82;;;3.35;;
10383;SDS011;5238;43.508;4.980;2023-09-19T01:23:09;5.85;;;3.53;;
10383;SDS011;5238;43.508;4.980;2023-09-19T01:26:01;7.30;;;3.55;;
10383;SDS011;5238;43.508;4.980;2023-09-19T01:28:34;6.22;;;3.55;;
10383;SDS011;5238;43.508;4.980;2023-09-19T01:31:13;5.25;;;3.47;;
10383;SDS011;5238;43.508;4.980;2023-09-19T01:33:53;8.25;;;3.75;;
10383;SDS011;5238;43.508;4.980;2023-09-19T01:36:24;5.90;;;3.30;;
10383;SDS011;5238;43.508;4.980;2023-09-19T01:38:52;5.97;;;3.72;;
10383;SDS011;5238;43.508;4.980;2023-09-19T01:41:23;6.55;;;3.67;;
10383;SDS011;5238;43.508;4.980;2023-09-19T01:43:56;8.10;;;3.58;;
10383;SDS011;5238;43.508;4.980;2023-09-19T01:46:30;7.32;;;3.35;;
10383;SDS011;5238;43.508;4.980;2023-09-19T01:49:03;5.88;;;3.30;;
10383;SDS011;5238;43.508;4.980;2023-09-19T01:51:53;4.00;;;2.88;;
10383;SDS011;5238;43.508;4.980;2023-09-19T01:54:30;6.45;;;3.40;;
10383;SDS011;5238;43.508;4.980;2023-09-19T01:57:05;4.68;;;3.03;;
10383;SDS011;5238;43.508;4.980;2023-09-19T01:59:37;9.18;;;3.20;;
10383;SDS011;5238;43.508;4.980;2023-09-19T02:02:13;5.80;;;3.35;;
10383;SDS011;5238;43.508;4.980;2023-09-19T02:04:41;5.78;;;2.90;;
10383;SDS011;5238;43.508;4.980;2023-09-19T02:07:08;5.40;;;3.13;;
10383;SDS011;5238;43.508;4.980;2023-09-19T02:09:35;4.20;;;3.08;;
10383;SDS011;5238;43.508;4.980;2023-09-19T02:12:04;3.10;;;2.60;;
10383;SDS011;5238;43.508;4.980;2023-09-19T02:14:32;5.47;;;2.67;;
10383;SDS011;5238;43.508;4.980;2023-09-19T02:17:01;5.65;;;2.78;;
10383;SDS011;5238;43.508;4.980;2023-09-19T02:19:30;5.80;;;2.83;;
10383;SDS011;5238;43.508;4.980;2023-09-19T02:21:58;3.83;;;2.78;;
10383;SDS011;5238;43.508;4.980;2023-09-19T02:24:28;5.13;;;2.63;;
10383;SDS011;5238;43.508;4.980;2023-09-19T02:26:56;3.70;;;2.05;;
10383;SDS011;5238;43.508;4.980;2023-09-19T02:29:24;3.55;;;2.10;;
10383;SDS011;5238;43.508;4.980;2023-09-19T02:31:51;5.30;;;2.17;;
10383;SDS011;5238;43.508;4.980;2023-09-19T02:34:21;4.25;;;1.92;;
10383;SDS011;5238;43.508;4.980;2023-09-19T02:36:50;3.33;;;1.88;;
10383;SDS011;5238;43.508;4.980;2023-09-19T02:39:18;2.60;;;2.05;;
10383;SDS011;5238;43.508;4.980;2023-09-19T02:41:45;3.72;;;1.55;;
10383;SDS011;5238;43.508;4.980;2023-09-19T02:44:12;2.25;;;1.52;;
10383;SDS011;5238;43.508;4.980;2023-09-19T02:46:39;2.15;;;1.30;;
10383;SDS011;5238;43.508;4.980;2023-09-19T02:49:07;2.03;;;1.55;;
10383;SDS011;5238;43.508;4.980;2023-09-19T02:51:34;2.05;;;1.27;;
10383;SDS011;5238;43.508;4.980;2023-09-19T02:54:02;3.88;;;1.35;;
10383;SDS011;5238;43.508;4.980;2023-09-19T02:56:30;2.17;;;1.45;;
10383;SDS011;5238;43.508;4.980;2023-09-19T02:58:57;2.30;;;1.27;;
10383;SDS011;5238;43.508;4.980;2023-09-19T03:01:25;1.98;;;1.38;;
10383;SDS011;5238;43.508;4.980;2023-09-19T03:03:53;4.90;;;1.10;;
10383;SDS011;5238;43.508;4.980;2023-09-19T03:06:20;3.05;;;1.00;;
10383;SDS011;5238;43.508;4.980;2023-09-19T03:08:49;1.67;;;0.90;;
10383;SDS011;5238;43.508;4.980;2023-09-19T03:11:18;1.52;;;0.95;;
10383;SDS011;5238;43.508;4.980;2023-09-19T03:13:50;0.80;;;0.70;;
10383;SDS011;5238;43.508;4.980;2023-09-19T03:16:17;2.22;;;0.80;;
10383;SDS011;5238;43.508;4.980;2023-09-19T03:18:46;2.55;;;0.93;;
10383;SDS011;5238;43.508;4.980;2023-09-19T03:21:14;1.23;;;0.70;;
10383;SDS011;5238;43.508;4.980;2023-09-19T03:23:42;1.20;;;0.65;;
10383;SDS011;5238;43.508;4.980;2023-09-19T03:26:10;2.60;;;0.60;;
10383;SDS011;5238;43.508;4.980;2023-09-19T03:28:41;3.00;;;0.80;;
10383;SDS011;5238;43.508;4.980;2023-09-19T03:31:08;1.02;;;0.70;;
10383;SDS011;5238;43.508;4.980;2023-09-19T03:33:36;0.77;;;0.65;;
10383;SDS011;5238;43.508;4.980;2023-09-19T03:36:03;0.63;;;0.60;;
10383;SDS011;5238;43.508;4.980;2023-09-19T03:38:31;1.58;;;0.77;;
10383;SDS011;5238;43.508;4.980;2023-09-19T03:40:59;1.70;;;0.70;;
10383;SDS011;5238;43.508;4.980;2023-09-19T03:43:26;1.77;;;0.68;;
10383;SDS011;5238;43.508;4.980;2023-09-19T03:45:54;3.00;;;0.70;;
10383;SDS011;5238;43.508;4.980;2023-09-19T03:48:21;1.30;;;0.75;;
10383;SDS011;5238;43.508;4.980;2023-09-19T03:50:48;1.77;;;0.80;;
10383;SDS011;5238;43.508;4.980;2023-09-19T03:53:16;1.20;;;0.75;;
10383;SDS011;5238;43.508;4.980;2023-09-19T03:55:44;1.45;;;0.73;;
10383;SDS011;5238;43.508;4.980;2023-09-19T03:58:11;1.15;;;0.80;;
10383;SDS011;5238;43.508;4.980;2023-09-19T04:00:38;0.73;;;0.70;;
10383;SDS011;5238;43.508;4.980;2023-09-19T04:03:07;0.50;;;0.50;;
10383;SDS011;5238;43.508;4.980;2023-09-19T04:05:35;1.08;;;0.98;;
10383;SDS011;5238;43.508;4.980;2023-09-19T04:08:03;1.20;;;0.68;;
10383;SDS011;5238;43.508;4.980;2023-09-19T04:10:30;1.70;;;0.73;;
10383;SDS011;5238;43.508;4.980;2023-09-19T04:12:57;0.82;;;0.60;;
10383;SDS011;5238;43.508;4.980;2023-09-19T04:15:24;2.88;;;0.85;;
10383;SDS011;5238;43.508;4.980;2023-09-19T04:17:52;0.98;;;0.60;;
10383;SDS011;5238;43.508;4.980;2023-09-19T04:20:20;1.55;;;0.77;;
10383;SDS011;5238;43.508;4.980;2023-09-19T04:22:49;0.60;;;0.60;;
10383;SDS011;5238;43.508;4.980;2023-09-19T04:25:16;1.95;;;0.77;;
10383;SDS011;5238;43.508;4.980;2023-09-19T04:27:43;2.10;;;0.75;;
10383;SDS011;5238;43.508;4.980;2023-09-19T04:30:11;0.90;;;0.60;;
10383;SDS011;5238;43.508;4.980;2023-09-19T04:32:39;1.73;;;0.80;;
10383;SDS011;5238;43.508;4.980;2023-09-19T04:35:07;1.80;;;0.75;;
10383;SDS011;5238;43.508;4.980;2023-09-19T04:37:37;1.40;;;0.88;;
10383;SDS011;5238;43.508;4.980;2023-09-19T04:40:07;0.70;;;0.70;;
10383;SDS011;5238;43.508;4.980;2023-09-19T04:42:38;1.40;;;0.60;;
10383;SDS011;5238;43.508;4.980;2023-09-19T04:45:07;1.27;;;0.73;;
10383;SDS011;5238;43.508;4.980;2023-09-19T04:47:35;1.50;;;0.90;;
10383;SDS011;5238;43.508;4.980;2023-09-19T04:50:05;2.15;;;0.90;;
10383;SDS011;5238;43.508;4.980;2023-09-19T04:52:38;1.00;;;0.60;;
10383;SDS011;5238;43.508;4.980;2023-09-19T04:55:07;2.20;;;0.80;;
10383;SDS011;5238;43.508;4.980;2023-09-19T04:57:35;3.10;;;0.85;;
10383;SDS011;5238;43.508;4.980;2023-09-19T05:00:04;1.55;;;0.80;;
10383;SDS011;5238;43.508;4.980;2023-09-19T05:02:37;2.90;;;0.77;;
10383;SDS011;5238;43.508;4.980;2023-09-19T05:05:05;4.07;;;0.85;;
10383;SDS011;5238;43.508;4.980;2023-09-19T05:07:33;2.83;;;0.93;;
10383;SDS011;5238;43.508;4.980;2023-09-19T05:10:01;1.73;;;0.90;;
10383;SDS011;5238;43.508;4.980;2023-09-19T05:12:30;1.67;;;0.80;;
10383;SDS011;5238;43.508;4.980;2023-09-19T05:14:59;2.30;;;0.73;;
10383;SDS011;5238;43.508;4.980;2023-09-19T05:17:26;1.65;;;0.88;;
10383;SDS011;5238;43.508;4.980;2023-09-19T05:19:53;3.08;;;0.90;;
10383;SDS011;5238;43.508;4.980;2023-09-19T05:22:20;1.98;;;1.00;;
10383;SDS011;5238;43.508;4.980;2023-09-19T05:24:49;1.35;;;1.00;;
10383;SDS011;5238;43.508;4.980;2023-09-19T05:27:19;2.45;;;0.90;;
10383;SDS011;5238;43.508;4.980;2023-09-19T05:29:46;3.10;;;0.68;;
10383;SDS011;5238;43.508;4.980;2023-09-19T05:32:14;2.65;;;0.80;;
10383;SDS011;5238;43.508;4.980;2023-09-19T05:34:41;1.13;;;0.77;;
10383;SDS011;5238;43.508;4.980;2023-09-19T05:37:08;2.28;;;0.90;;
10383;SDS011;5238;43.508;4.980;2023-09-19T05:39:35;1.65;;;1.00;;
10383;SDS011;5238;43.508;4.980;2023-09-19T05:42:02;1.27;;;1.00;;
10383;SDS011;5238;43.508;4.980;2023-09-19T05:44:31;1.85;;;0.90;;
10383;SDS011;5238;43.508;4.980;2023-09-19T05:46:58;2.45;;;1.05;;
10383;SDS011;5238;43.508;4.980;2023-09-19T05:49:25;2.10;;;1.17;;
10383;SDS011;5238;43.508;4.980;2023-09-19T05:51:52;2.15;;;1.00;;
10383;SDS011;5238;43.508;4.980;2023-09-19T05:54:24;2.65;;;0.90;;
10383;SDS011;5238;43.508;4.980;2023-09-19T05:56:51;2.28;;;1.10;;
10383;SDS011;5238;43.508;4.980;2023-09-19T05:59:18;2.80;;;0.98;;
10383;SDS011;5238;43.508;4.980;2023-09-19T06:01:46;2.28;;;1.13;;
10383;SDS011;5238;43.508;4.980;2023-09-19T06:04:13;4.32;;;1.10;;
10383;SDS011;5238;43.508;4.980;2023-09-19T06:06:40;4.78;;;1.00;;
10383;SDS011;5238;43.508;4.980;2023-09-19T06:09:07;1.50;;;0.90;;
10383;SDS011;5238;43.508;4.980;2023-09-19T06:11:34;1.35;;;1.00;;
10383;SDS011;5238;43.508;4.980;2023-09-19T06:14:02;3.35;;;1.15;;
10383;SDS011;5238;43.508;4.980;2023-09-19T06:16:30;3.35;;;1.13;;
10383;SDS011;5238;43.508;4.980;2023-09-19T06:18:59;2.30;;;1.13;;
10383;SDS011;5238;43.508;4.980;2023-09-19T06:21:26;3.55;;;1.02;;
10383;SDS011;5238;43.508;4.980;2023-09-19T06:23:53;2.65;;;1.05;;
10383;SDS011;5238;43.508;4.980;2023-09-19T06:26:20;3.70;;;1.00;;
10383;SDS011;5238;43.508;4.980;2023-09-19T06:28:48;2.33;;;0.95;;
10383;SDS011;5238;43.508;4.980;2023-09-19T06:31:16;2.15;;;0.95;;
10383;SDS011;5238;43.508;4.980;2023-09-19T06:33:43;2.78;;;1.10;;
10383;SDS011;5238;43.508;4.980;2023-09-19T06:36:11;4.50;;;1.17;;
10383;SDS011;5238;43.508;4.980;2023-09-19T06:38:38;3.10;;;0.98;;
10383;SDS011;5238;43.508;4.980;2023-09-19T06:41:06;2.67;;;0.90;;
10383;SDS011;5238;43.508;4.980;2023-09-19T06:43:33;2.00;;;1.13;;
10383;SDS011;5238;43.508;4.980;2023-09-19T06:46:01;3.33;;;0.93;;
10383;SDS011;5238;43.508;4.980;2023-09-19T06:48:29;3.30;;;0.98;;
10383;SDS011;5238;43.508;4.980;2023-09-19T06:50:56;1.73;;;1.17;;
10383;SDS011;5238;43.508;4.980;2023-09-19T06:53:31;1.52;;;0.65;;
10383;SDS011;5238;43.508;4.980;2023-09-19T06:56:00;1.60;;;0.80;;
10383;SDS011;5238;43.508;4.980;2023-09-19T06:58:27;2.40;;;0.90;;
10383;SDS011;5238;43.508;4.980;2023-09-19T07:00:54;1.95;;;1.08;;
10383;SDS011;5238;43.508;4.980;2023-09-19T07:03:22;3.22;;;0.90;;
10383;SDS011;5238;43.508;4.980;2023-09-19T07:05:51;1.38;;;0.93;;
10383;SDS011;5238;43.508;4.980;2023-09-19T07:08:21;1.35;;;0.77;;
10383;SDS011;5238;43.508;4.980;2023-09-19T07:10:49;1.45;;;1.00;;
10383;SDS011;5238;43.508;4.980;2023-09-19T07:13:17;1.10;;;0.70;;
10383;SDS011;5238;43.508;4.980;2023-09-19T07:15:44;1.38;;;0.65;;
10383;SDS011;5238;43.508;4.980;2023-09-19T07:18:15;1.38;;;0.60;;
10383;SDS011;5238;43.508;4.980;2023-09-19T07:20:43;2.80;;;0.68;;
10383;SDS011;5238;43.508;4.980;2023-09-19T07:23:14;1.35;;;0.63;;
10383;SDS011;5238;43.508;4.980;2023-09-19T07:25:41;0.60;;;0.60;;
10383;SDS011;5238;43.508;4.980;2023-09-19T07:28:10;1.10;;;0.85;;
10383;SDS011;5238;43.508;4.980;2023-09-19T07:30:37;1.98;;;0.70;;
10383;SDS011;5238;43.508;4.980;2023-09-19T07:33:04;1.48;;;0.60;;
10383;SDS011;5238;43.508;4.980;2023-09-19T07:35:32;1.35;;;0.70;;
10383;SDS011;5238;43.508;4.980;2023-09-19T07:37:59;1.45;;;0.70;;
10383;SDS011;5238;43.508;4.980;2023-09-19T07:40:27;1.40;;;0.80;;
10383;SDS011;5238;43.508;4.980;2023-09-19T07:42:55;1.45;;;0.75;;
10383;SDS011;5238;43.508;4.980;2023-09-19T07:45:27;0.80;;;0.70;;
10383;SDS011;5238;43.508;4.980;2023-09-19T07:47:55;3.65;;;1.20;;
10383;SDS011;5238;43.508;4.980;2023-09-19T07:50:22;3.47;;;0.80;;
10383;SDS011;5238;43.508;4.980;2023-09-19T07:52:51;2.85;;;0.90;;
10383;SDS011;5238;43.508;4.980;2023-09-19T07:55:19;2.78;;;0.85;;
10383;SDS011;5238;43.508;4.980;2023-09-19T07:57:49;3.03;;;1.10;;
10383;SDS011;5238;43.508;4.980;2023-09-19T08:00:16;1.80;;;1.05;;
10383;SDS011;5238;43.508;4.980;2023-09-19T08:02:44;3.88;;;1.17;;
10383;SDS011;5238;43.508;4.980;2023-09-19T08:05:12;7.63;;;1.15;;
10383;SDS011;5238;43.508;4.980;2023-09-19T08:07:42;2.20;;;1.10;;
10383;SDS011;5238;43.508;4.980;2023-09-19T08:10:13;1.45;;;0.85;;
10383;SDS011;5238;43.508;4.980;2023-09-19T08:12:41;2.05;;;0.80;;
10383;SDS011;5238;43.508;4.980;2023-09-19T08:15:11;3.50;;;1.00;;
10383;SDS011;5238;43.508;4.980;2023-09-19T08:17:39;2.13;;;0.85;;
10383;SDS011;5238;43.508;4.980;2023-09-19T08:20:08;2.47;;;1.00;;
10383;SDS011;5238;43.508;4.980;2023-09-19T08:22:41;1.15;;;0.88;;
10383;SDS011;5238;43.508;4.980;2023-09-19T08:25:13;1.95;;;1.10;;
10383;SDS011;5238;43.508;4.980;2023-09-19T08:27:42;3.53;;;1.00;;
10383;SDS011;5238;43.508;4.980;2023-09-19T08:30:12;1.73;;;1.10;;
10383;SDS011;5238;43.508;4.980;2023-09-19T08:32:40;2.95;;;1.00;;
10383;SDS011;5238;43.508;4.980;2023-09-19T08:35:09;3.92;;;1.00;;
10383;SDS011;5238;43.508;4.980;2023-09-19T08:37:36;1.88;;;1.15;;
10383;SDS011;5238;43.508;4.980;2023-09-19T08:40:04;2.30;;;0.98;;
10383;SDS011;5238;43.508;4.980;2023-09-19T08:42:48;5.85;;;1.27;;
10383;SDS011;5238;43.508;4.980;2023-09-19T08:45:16;3.53;;;1.10;;
10383;SDS011;5238;43.508;4.980;2023-09-19T08:47:45;1.10;;;0.85;;
10383;SDS011;5238;43.508;4.980;2023-09-19T08:50:19;0.98;;;0.88;;
10383;SDS011;5238;43.508;4.980;2023-09-19T08:52:53;0.80;;;0.80;;
10383;SDS011;5238;43.508;4.980;2023-09-19T08:55:23;2.05;;;1.08;;
10383;SDS011;5238;43.508;4.980;2023-09-19T08:57:55;1.88;;;0.90;;
10383;SDS011;5238;43.508;4.980;2023-09-19T09:00:27;0.95;;;0.85;;
10383;SDS011;5238;43.508;4.980;2023-09-19T09:02:55;1.92;;;1.00;;
10383;SDS011;5238;43.508;4.980;2023-09-19T09:05:24;1.40;;;0.80;;
10383;SDS011;5238;43.508;4.980;2023-09-19T09:07:53;1.55;;;0.70;;
10383;SDS011;5238;43.508;4.980;2023-09-19T09:10:21;1.13;;;1.00;;
10383;SDS011;5238;43.508;4.980;2023-09-19T09:12:49;2.22;;;0.70;;
10383;SDS011;5238;43.508;4.980;2023-09-19T09:15:18;1.75;;;0.90;;
10383;SDS011;5238;43.508;4.980;2023-09-19T09:17:46;2.17;;;0.75;;
10383;SDS011;5238;43.508;4.980;2023-09-19T09:20:15;1.17;;;0.80;;
10383;SDS011;5238;43.508;4.980;2023-09-19T09:22:51;1.10;;;0.80;;
10383;SDS011;5238;43.508;4.980;2023-09-19T09:25:19;1.73;;;1.10;;
10383;SDS011;5238;43.508;4.980;2023-09-19T09:27:58;1.05;;;0.70;;
10383;SDS011;5238;43.508;4.980;2023-09-19T09:30:32;0.88;;;0.70;;
10383;SDS011;5238;43.508;4.980;2023-09-19T09:33:07;1.10;;;0.80;;
10383;SDS011;5238;43.508;4.980;2023-09-19T09:35:36;1.25;;;0.80;;
10383;SDS011;5238;43.508;4.980;2023-09-19T09:38:05;0.70;;;0.65;;
10383;SDS011;5238;43.508;4.980;2023-09-19T09:40:45;1.17;;;0.75;;
10383;SDS011;5238;43.508;4.980;2023-09-19T09:43:24;1.08;;;0.75;;
10383;SDS011;5238;43.508;4.980;2023-09-19T09:46:06;1.15;;;0.68;;
10383;SDS011;5238;43.508;4.980;2023-09-19T09:49:22;1.10;;;0.70;;
10383;SDS011;5238;43.508;4.980;2023-09-19T09:51:58;3.08;;;0.88;;
10383;SDS011;5238;43.508;4.980;2023-09-19T09:54:32;1.98;;;0.90;;
10383;SDS011;5238;43.508;4.980;2023-09-19T09:57:02;2.33;;;0.90;;
10383;SDS011;5238;43.508;4.980;2023-09-19T09:59:45;1.63;;;0.70;;
10383;SDS011;5238;43.508;4.980;2023-09-19T10:02:14;0.93;;;0.85;;
10383;SDS011;5238;43.508;4.980;2023-09-19T10:04:48;2.92;;;1.05;;
10383;SDS011;5238;43.508;4.980;2023-09-19T10:07:27;1.77;;;0.93;;
10383;SDS011;5238;43.508;4.980;2023-09-19T10:10:02;0.95;;;0.90;;
10383;SDS011;5238;43.508;4.980;2023-09-19T10:12:42;0.80;;;0.80;;
10383;SDS011;5238;43.508;4.980;2023-09-19T10:15:13;1.20;;;0.80;;
10383;SDS011;5238;43.508;4.980;2023-09-19T10:17:42;1.25;;;1.10;;
10383;SDS011;5238;43.508;4.980;2023-09-19T10:20:13;1.50;;;0.90;;
10383;SDS011;5238;43.508;4.980;2023-09-19T10:23:01;1.08;;;0.85;;
10383;SDS011;5238;43.508;4.980;2023-09-19T10:25:36;1.55;;;1.02;;
10383;SDS011;5238;43.508;4.980;2023-09-19T10:28:05;1.25;;;1.08;;
10383;SDS011;5238;43.508;4.980;2023-09-19T10:30:36;1.42;;;0.93;;
10383;SDS011;5238;43.508;4.980;2023-09-19T10:33:09;1.10;;;0.88;;
10383;SDS011;5238;43.508;4.980;2023-09-19T10:35:38;1.77;;;0.80;;
10383;SDS011;5238;43.508;4.980;2023-09-19T10:38:06;0.90;;;0.80;;
10383;SDS011;5238;43.508;4.980;2023-09-19T10:40:37;1.60;;;0.80;;
10383;SDS011;5238;43.508;4.980;2023-09-19T10:43:11;1.50;;;0.88;;
10383;SDS011;5238;43.508;4.980;2023-09-19T10:45:40;0.82;;;0.73;;
10383;SDS011;5238;43.508;4.980;2023-09-19T10:48:10;0.80;;;0.80;;
10383;SDS011;5238;43.508;4.980;2023-09-19T10:50:41;0.75;;;0.75;;
10383;SDS011;5238;43.508;4.980;2023-09-19T10:53:11;0.90;;;0.90;;
10383;SDS011;5238;43.508;4.980;2023-09-19T10:55:41;1.00;;;0.80;;
10383;SDS011;5238;43.508;4.980;2023-09-19T10:58:24;1.10;;;0.70;;
10383;SDS011;5238;43.508;4.980;2023-09-19T11:00:54;2.58;;;1.00;;
10383;SDS011;5238;43.508;4.980;2023-09-19T11:03:22;1.05;;;0.75;;
10383;SDS011;5238;43.508;4.980;2023-09-19T11:06:01;2.05;;;0.65;;
10383;SDS011;5238;43.508;4.980;2023-09-19T11:11:42;0.60;;;0.60;;
10383;SDS011;5238;43.508;4.980;2023-09-19T11:14:17;0.70;;;0.70;;
10383;SDS011;5238;43.508;4.980;2023-09-19T11:25:48;0.90;;;0.90;;
10383;SDS011;5238;43.508;4.980;2023-09-19T11:28:37;1.27;;;0.82;;
10383;SDS011;5238;43.508;4.980;2023-09-19T11:40:44;1.00;;;0.70;;
10383;SDS011;5238;43.508;4.980;2023-09-19T11:43:29;0.88;;;0.70;;
10383;SDS011;5238;43.508;4.980;2023-09-19T11:46:07;0.68;;;0.63;;
10383;SDS011;5238;43.508;4.980;2023-09-19T11:48:40;0.93;;;0.80;;
10383;SDS011;5238;43.508;4.980;2023-09-19T11:51:16;1.13;;;0.70;;
10383;SDS011;5238;43.508;4.980;2023-09-19T11:53:53;1.35;;;0.60;;
10383;SDS011;5238;43.508;4.980;2023-09-19T11:56:21;1.85;;;0.68;;
10383;SDS011;5238;43.508;4.980;2023-09-19T11:58:49;2.03;;;0.73;;
10383;SDS011;5238;43.508;4.980;2023-09-19T12:01:23;0.80;;;0.70;;
10383;SDS011;5238;43.508;4.980;2023-09-19T12:03:54;0.77;;;0.70;;
10383;SDS011;5238;43.508;4.980;2023-09-19T12:06:23;2.85;;;0.70;;
10383;SDS011;5238;43.508;4.980;2023-09-19T12:08:50;0.77;;;0.60;;
10383;SDS011;5238;43.508;4.980;2023-09-19T12:11:19;0.52;;;0.50;;
10383;SDS011;5238;43.508;4.980;2023-09-19T12:13:48;1.13;;;0.60;;
10383;SDS011;5238;43.508;4.980;2023-09-19T12:16:16;0.68;;;0.68;;
10383;SDS011;5238;43.508;4.980;2023-09-19T12:18:48;0.85;;;0.57;;
10383;SDS011;5238;43.508;4.980;2023-09-19T12:21:26;1.17;;;0.63;;
10383;SDS011;5238;43.508;4.980;2023-09-19T12:24:06;0.93;;;0.60;;
10383;SDS011;5238;43.508;4.980;2023-09-19T12:26:42;1.63;;;0.60;;
10383;SDS011;5238;43.508;4.980;2023-09-19T12:29:13;1.45;;;0.70;;
10383;SDS011;5238;43.508;4.980;2023-09-19T12:31:51;0.57;;;0.50;;
10383;SDS011;5238;43.508;4.980;2023-09-19T12:34:24;2.92;;;0.80;;
10383;SDS011;5238;43.508;4.980;2023-09-19T12:37:05;0.70;;;0.60;;
10383;SDS011;5238;43.508;4.980;2023-09-19T12:39:40;0.95;;;0.60;;
10383;SDS011;5238;43.508;4.980;2023-09-19T12:42:09;1.48;;;0.40;;
10383;SDS011;5238;43.508;4.980;2023-09-19T12:44:40;1.13;;;0.60;;
10383;SDS011;5238;43.508;4.980;2023-09-19T12:47:12;1.45;;;0.63;;
10383;SDS011;5238;43.508;4.980;2023-09-19T12:52:38;2.28;;;0.60;;
10383;SDS011;5238;43.508;4.980;2023-09-19T12:55:06;1.38;;;0.60;;
10383;SDS011;5238;43.508;4.980;2023-09-19T12:57:36;2.10;;;0.60;;
10383;SDS011;5238;43.508;4.980;2023-09-19T13:00:04;0.77;;;0.70;;
10383;SDS011;5238;43.508;4.980;2023-09-19T13:02:36;0.60;;;0.60;;
10383;SDS011;5238;43.508;4.980;2023-09-19T13:05:03;0.70;;;0.60;;
10383;SDS011;5238;43.508;4.980;2023-09-19T13:07:43;0.93;;;0.50;;
10383;SDS011;5238;43.508;4.980;2023-09-19T13:10:12;0.80;;;0.50;;
10383;SDS011;5238;43.508;4.980;2023-09-19T13:12:41;0.50;;;0.50;;
10383;SDS011;5238;43.508;4.980;2023-09-19T13:15:12;1.30;;;0.52;;
10383;SDS011;5238;43.508;4.980;2023-09-19T13:17:44;0.55;;;0.55;;
10383;SDS011;5238;43.508;4.980;2023-09-19T13:20:22;0.43;;;0.43;;
10383;SDS011;5238;43.508;4.980;2023-09-19T13:22:55;1.15;;;0.60;;
10383;SDS011;5238;43.508;4.980;2023-09-19T13:25:31;2.25;;;0.73;;
10383;SDS011;5238;43.508;4.980;2023-09-19T13:27:58;1.77;;;0.60;;
10383;SDS011;5238;43.508;4.980;2023-09-19T13:30:29;0.75;;;0.55;;
10383;SDS011;5238;43.508;4.980;2023-09-19T13:33:05;0.98;;;0.60;;
10383;SDS011;5238;43.508;4.980;2023-09-19T13:35:33;1.60;;;0.60;;
10383;SDS011;5238;43.508;4.980;2023-09-19T13:38:02;1.50;;;0.60;;
10383;SDS011;5238;43.508;4.980;2023-09-19T13:40:29;1.38;;;0.55;;
10383;SDS011;5238;43.508;4.980;2023-09-19T13:43:00;0.85;;;0.68;;
10383;SDS011;5238;43.508;4.980;2023-09-19T13:45:27;0.47;;;0.47;;
10383;SDS011;5238;43.508;4.980;2023-09-19T13:47:55;1.13;;;0.60;;
10383;SDS011;5238;43.508;4.980;2023-09-19T13:50:22;0.98;;;0.65;;
10383;SDS011;5238;43.508;4.980;2023-09-19T13:52:50;0.50;;;0.50;;
10383;SDS011;5238;43.508;4.980;2023-09-19T13:55:19;0.60;;;0.50;;
10383;SDS011;5238;43.508;4.980;2023-09-19T13:57:46;0.60;;;0.57;;
10383;SDS011;5238;43.508;4.980;2023-09-19T14:00:15;0.82;;;0.60;;
10383;SDS011;5238;43.508;4.980;2023-09-19T14:02:43;0.63;;;0.60;;
10383;SDS011;5238;43.508;4.980;2023-09-19T14:05:11;0.82;;;0.70;;
10383;SDS011;5238;43.508;4.980;2023-09-19T14:07:41;1.30;;;0.60;;
10383;SDS011;5238;43.508;4.980;2023-09-19T14:10:10;0.70;;;0.60;;
10383;SDS011;5238;43.508;4.980;2023-09-19T14:12:38;1.23;;;0.73;;
10383;SDS011;5238;43.508;4.980;2023-09-19T14:15:06;3.42;;;0.70;;
10383;SDS011;5238;43.508;4.980;2023-09-19T14:17:34;1.95;;;0.98;;
10383;SDS011;5238;43.508;4.980;2023-09-19T14:20:01;6.78;;;4.05;;
10383;SDS011;5238;43.508;4.980;2023-09-19T14:22:28;29.65;;;22.23;;
10383;SDS011;5238;43.508;4.980;2023-09-19T14:24:57;2.70;;;1.15;;
10383;SDS011;5238;43.508;4.980;2023-09-19T14:27:24;2.25;;;1.00;;
10383;SDS011;5238;43.508;4.980;2023-09-19T14:29:53;5.68;;;3.75;;
10383;SDS011;5238;43.508;4.980;2023-09-19T14:32:20;2.38;;;1.63;;
10383;SDS011;5238;43.508;4.980;2023-09-19T14:34:47;1.88;;;1.23;;
10383;SDS011;5238;43.508;4.980;2023-09-19T14:37:14;2.70;;;1.10;;
10383;SDS011;5238;43.508;4.980;2023-09-19T14:39:42;2.60;;;1.60;;
10383;SDS011;5238;43.508;4.980;2023-09-19T14:42:09;1.92;;;0.93;;
10383;SDS011;5238;43.508;4.980;2023-09-19T14:44:37;8.00;;;6.97;;
10383;SDS011;5238;43.508;4.980;2023-09-19T14:47:06;3.40;;;2.13;;
10383;SDS011;5238;43.508;4.980;2023-09-19T14:49:33;4.15;;;1.67;;
10383;SDS011;5238;43.508;4.980;2023-09-19T14:52:00;3.30;;;1.88;;
10383;SDS011;5238;43.508;4.980;2023-09-19T14:54:29;3.25;;;1.60;;
10383;SDS011;5238;43.508;4.980;2023-09-19T14:56:56;3.55;;;1.10;;
10383;SDS011;5238;43.508;4.980;2023-09-19T14:59:29;2.47;;;1.75;;
10383;SDS011;5238;43.508;4.980;2023-09-19T15:01:56;3.33;;;0.93;;
10383;SDS011;5238;43.508;4.980;2023-09-19T15:04:25;2.20;;;1.15;;
10383;SDS011;5238;43.508;4.980;2023-09-19T15:06:53;2.05;;;1.10;;
10383;SDS011;5238;43.508;4.980;2023-09-19T15:09:20;3.35;;;1.08;;
10383;SDS011;5238;43.508;4.980;2023-09-19T15:11:49;4.07;;;2.30;;
10383;SDS011;5238;43.508;4.980;2023-09-19T15:14:17;1.95;;;1.00;;
10383;SDS011;5238;43.508;4.980;2023-09-19T15:16:44;2.60;;;1.00;;
10383;SDS011;5238;43.508;4.980;2023-09-19T15:19:11;1.30;;;0.73;;
10383;SDS011;5238;43.508;4.980;2023-09-19T15:21:40;3.65;;;1.10;;
10383;SDS011;5238;43.508;4.980;2023-09-19T15:24:07;2.53;;;1.10;;
10383;SDS011;5238;43.508;4.980;2023-09-19T15:26:35;2.92;;;1.20;;
10383;SDS011;5238;43.508;4.980;2023-09-19T15:29:04;2.38;;;0.80;;
10383;SDS011;5238;43.508;4.980;2023-09-19T15:31:31;2.28;;;1.20;;
10383;SDS011;5238;43.508;4.980;2023-09-19T15:34:01;2.00;;;0.98;;
10383;SDS011;5238;43.508;4.980;2023-09-19T15:36:28;3.20;;;1.40;;
10383;SDS011;5238;43.508;4.980;2023-09-19T15:38:58;42.83;;;29.85;;
10383;SDS011;5238;43.508;4.980;2023-09-19T15:41:26;30.40;;;20.33;;